Time;durP1;ratioP1;P1;durP2;ratioP2;P2;SDS_P1;SDS_P2;PMS_P1;PMS_P2;Temp;Humidity;BMP_temperature;BMP_pressure;BME280_temperature;BME280_humidity;BME280_pressure;Samples;Min_cycle;Max_cycle;Signal;HPM_P1;HPM_P2
2022/04/16 00:00:52;;;;;;;1.30;1.30;;;;;;;;;;5105688;28;20203;-69
2022/04/16 00:03:19;;;;;;;1.65;1.30;;;;;;;;;;5105607;28;20196;-69
2022/04/16 00:05:45;;;;;;;1.50;1.50;;;;;;;;;;5105544;28;20414;-69
2022/04/16 00:08:12;;;;;;;1.95;1.30;;;;;;;;;;5105444;28;20394;-69
2022/04/16 00:10:39;;;;;;;1.17;1.17;;;;;;;;;;5105593;28;20200;-69
2022/04/16 00:13:06;;;;;;;1.27;1.27;;;;;;;;;;5105414;28;20195;-69
2022/04/16 00:15:33;;;;;;;1.90;1.30;;;;;;;;;;5105569;28;20192;-69
2022/04/16 00:18:00;;;;;;;1.38;1.27;;;;;;;;;;5105256;28;20195;-69
2022/04/16 00:20:27;;;;;;;1.45;1.45;;;;;;;;;;5105306;28;20278;-69
2022/04/16 00:22:53;;;;;;;1.50;1.50;;;;;;;;;;5105400;28;20195;-69
2022/04/16 00:25:20;;;;;;;3.00;1.33;;;;;;;;;;5105092;28;20396;-69
2022/04/16 00:27:46;;;;;;;1.08;1.08;;;;;;;;;;5105147;28;20195;-69
2022/04/16 00:30:13;;;;;;;1.20;1.20;;;;;;;;;;5105371;28;20495;-69
2022/04/16 00:32:41;;;;;;;1.58;1.58;;;;;;;;;;5105183;28;20279;-69
2022/04/16 00:35:08;;;;;;;1.10;1.10;;;;;;;;;;5104986;28;20192;-69
2022/04/16 00:37:34;;;;;;;1.15;1.15;;;;;;;;;;5104352;28;20403;-69
2022/04/16 00:40:00;;;;;;;1.20;1.20;;;;;;;;;;5104836;28;20241;-69
2022/04/16 00:42:31;;;;;;;1.50;1.40;;;;;;;;;;5104817;28;20203;-68
2022/04/16 00:44:57;;;;;;;1.55;1.45;;;;;;;;;;5104915;28;20219;-69
2022/04/16 00:47:24;;;;;;;1.55;1.45;;;;;;;;;;5104426;28;20191;-69
2022/04/16 00:49:51;;;;;;;1.35;1.35;;;;;;;;;;5104817;28;20203;-69
2022/04/16 00:52:17;;;;;;;1.30;1.30;;;;;;;;;;5104588;28;20200;-69
2022/04/16 00:54:44;;;;;;;1.33;1.20;;;;;;;;;;5104865;28;20404;-69
2022/04/16 00:57:10;;;;;;;1.25;1.25;;;;;;;;;;5104397;28;20207;-69
2022/04/16 00:59:37;;;;;;;1.50;1.50;;;;;;;;;;5104671;28;20195;-69
2022/04/16 01:02:03;;;;;;;1.30;1.30;;;;;;;;;;5104664;28;20211;-69
2022/04/16 01:04:29;;;;;;;1.50;1.50;;;;;;;;;;5104387;28;20203;-69
2022/04/16 01:06:57;;;;;;;1.50;1.40;;;;;;;;;;5104147;28;20226;-69
2022/04/16 01:09:23;;;;;;;1.38;1.38;;;;;;;;;;5104692;28;20228;-69
2022/04/16 01:11:50;;;;;;;1.33;1.33;;;;;;;;;;5104379;28;20203;-69
2022/04/16 01:14:19;;;;;;;1.30;1.30;;;;;;;;;;5104711;28;20196;-69
2022/04/16 01:16:45;;;;;;;1.50;1.50;;;;;;;;;;5104100;28;20270;-69
2022/04/16 01:19:12;;;;;;;2.13;1.65;;;;;;;;;;5104107;28;20202;-69
2022/04/16 01:21:39;;;;;;;1.48;1.48;;;;;;;;;;5104070;28;20382;-69
2022/04/16 01:24:09;;;;;;;1.73;1.63;;;;;;;;;;5104222;28;20195;-69
2022/04/16 01:26:35;;;;;;;1.40;1.40;;;;;;;;;;5103916;28;20290;-69
2022/04/16 01:29:02;;;;;;;1.48;1.38;;;;;;;;;;5104214;28;20209;-69
2022/04/16 01:31:30;;;;;;;1.27;1.27;;;;;;;;;;5104067;28;20499;-69
2022/04/16 01:33:57;;;;;;;2.15;1.20;;;;;;;;;;5103280;28;20503;-69
2022/04/16 01:36:24;;;;;;;1.52;1.52;;;;;;;;;;5103714;28;20198;-69
2022/04/16 01:38:50;;;;;;;1.50;1.50;;;;;;;;;;5103936;28;20499;-69
2022/04/16 01:41:18;;;;;;;1.20;1.20;;;;;;;;;;5103858;28;20203;-69
2022/04/16 01:43:44;;;;;;;1.40;1.30;;;;;;;;;;5103721;28;20204;-69
2022/04/16 01:46:10;;;;;;;1.65;1.60;;;;;;;;;;5103396;28;20257;-69
2022/04/16 01:48:36;;;;;;;1.55;1.55;;;;;;;;;;5102659;28;20195;-69
2022/04/16 01:51:03;;;;;;;1.42;1.33;;;;;;;;;;5103417;28;20195;-69
2022/04/16 01:53:29;;;;;;;1.40;1.40;;;;;;;;;;5103572;28;20237;-68
2022/04/16 01:55:55;;;;;;;1.58;1.48;;;;;;;;;;5103478;28;20196;-68
2022/04/16 01:58:23;;;;;;;1.58;1.58;;;;;;;;;;5103361;28;20196;-69
2022/04/16 02:00:49;;;;;;;1.40;1.40;;;;;;;;;;5103294;28;20245;-69
2022/04/16 02:03:15;;;;;;;1.50;1.40;;;;;;;;;;5103576;28;20200;-68
2022/04/16 02:05:41;;;;;;;1.80;1.70;;;;;;;;;;5103304;28;20235;-68
2022/04/16 02:08:08;;;;;;;1.70;1.60;;;;;;;;;;5103188;28;20195;-69
2022/04/16 02:10:35;;;;;;;1.90;1.80;;;;;;;;;;5103335;28;20428;-69
2022/04/16 02:13:01;;;;;;;1.80;1.70;;;;;;;;;;5103153;28;20195;-69
2022/04/16 02:15:29;;;;;;;1.85;1.70;;;;;;;;;;5103107;28;20237;-68
2022/04/16 02:17:56;;;;;;;1.73;1.73;;;;;;;;;;5103065;28;20196;-69
2022/04/16 02:20:23;;;;;;;1.90;1.80;;;;;;;;;;5103190;28;20428;-69
2022/04/16 02:22:50;;;;;;;1.38;1.38;;;;;;;;;;5103022;28;20265;-69
2022/04/16 02:25:17;;;;;;;1.58;1.58;;;;;;;;;;5103000;28;20223;-69
2022/04/16 02:27:44;;;;;;;1.88;1.60;;;;;;;;;;5102592;28;20511;-69
2022/04/16 02:30:12;;;;;;;1.40;1.40;;;;;;;;;;5103054;28;20196;-68
2022/04/16 02:32:40;;;;;;;1.63;1.63;;;;;;;;;;5103004;28;20233;-69
2022/04/16 02:35:07;;;;;;;1.98;1.88;;;;;;;;;;5102781;28;20195;-69
2022/04/16 02:37:33;;;;;;;1.70;1.70;;;;;;;;;;5102599;28;20452;-69
2022/04/16 02:40:00;;;;;;;1.90;1.80;;;;;;;;;;5102879;28;20389;-68
2022/04/16 02:42:26;;;;;;;1.70;1.60;;;;;;;;;;5102781;28;20195;-68
2022/04/16 02:47:36;;;;;;;1.50;1.50;;;;;;;;;;5102561;28;20209;-69
2022/04/16 02:50:04;;;;;;;2.10;1.92;;;;;;;;;;5102556;28;20241;-69
2022/04/16 02:52:31;;;;;;;1.67;1.67;;;;;;;;;;5102559;28;20195;-68
2022/04/16 02:54:58;;;;;;;1.60;1.60;;;;;;;;;;5102730;28;20223;-69
2022/04/16 02:57:24;;;;;;;1.90;1.90;;;;;;;;;;5102469;28;20495;-69
2022/04/16 02:59:52;;;;;;;1.98;1.60;;;;;;;;;;5102439;28;20489;-69
2022/04/16 03:02:18;;;;;;;2.33;2.05;;;;;;;;;;5102644;28;20233;-68
2022/04/16 03:04:44;;;;;;;2.10;2.03;;;;;;;;;;5102367;28;20196;-68
2022/04/16 03:07:12;;;;;;;1.75;1.70;;;;;;;;;;5102209;28;20407;-68
2022/04/16 03:09:39;;;;;;;1.85;1.80;;;;;;;;;;5102889;28;20257;-69
2022/04/16 03:12:05;;;;;;;1.48;1.48;;;;;;;;;;5102552;28;20262;-68
2022/04/16 03:20:06;;;;;;;1.75;1.75;;;;;;;;;;5086574;28;20337;-68
2022/04/16 03:22:34;;;;;;;1.88;1.77;;;;;;;;;;5102558;28;20240;-69
2022/04/16 03:25:02;;;;;;;1.88;1.88;;;;;;;;;;5102265;28;20300;-69
2022/04/16 03:27:28;;;;;;;1.88;1.83;;;;;;;;;;5102066;28;20321;-69
2022/04/16 03:29:54;;;;;;;1.67;1.67;;;;;;;;;;5102119;28;20196;-69
2022/04/16 03:32:21;;;;;;;2.10;2.00;;;;;;;;;;5102150;28;20196;-68
2022/04/16 03:34:47;;;;;;;2.00;2.00;;;;;;;;;;5102305;28;20268;-68
2022/04/16 03:37:13;;;;;;;1.92;1.83;;;;;;;;;;5102099;28;20358;-69
2022/04/16 03:39:41;;;;;;;2.00;1.90;;;;;;;;;;5102197;28;20217;-68
2022/04/16 03:42:07;;;;;;;1.80;1.80;;;;;;;;;;5102216;28;20200;-68
2022/04/16 03:44:34;;;;;;;1.73;1.73;;;;;;;;;;5102140;28;20495;-68
2022/04/16 03:47:00;;;;;;;1.60;1.60;;;;;;;;;;5101686;28;20267;-68
2022/04/16 03:49:26;;;;;;;1.92;1.92;;;;;;;;;;5102257;28;20195;-69
2022/04/16 03:51:52;;;;;;;2.10;2.00;;;;;;;;;;5102184;28;20242;-69
2022/04/16 04:00:03;;;;;;;2.15;2.05;;;;;;;;;;5077135;28;20238;-69
2022/04/16 04:02:30;;;;;;;2.38;2.28;;;;;;;;;;5102000;28;20196;-69
2022/04/16 04:04:56;;;;;;;1.95;1.92;;;;;;;;;;5101950;28;20277;-69
2022/04/16 04:07:23;;;;;;;2.08;2.05;;;;;;;;;;5101593;28;20242;-68
2022/04/16 04:09:49;;;;;;;2.70;2.60;;;;;;;;;;5101854;28;20193;-69
2022/04/16 04:12:17;;;;;;;3.85;2.08;;;;;;;;;;5104951;28;20207;-69
2022/04/16 04:14:44;;;;;;;2.03;1.92;;;;;;;;;;5105943;28;20499;-69
2022/04/16 04:17:11;;;;;;;2.58;2.47;;;;;;;;;;5105249;28;20192;-68
2022/04/16 04:19:38;;;;;;;2.13;2.03;;;;;;;;;;5105426;28;20214;-68
2022/04/16 04:22:04;;;;;;;2.17;2.08;;;;;;;;;;5105306;28;20457;-67
2022/04/16 04:24:31;;;;;;;2.10;2.00;;;;;;;;;;5105277;28;20204;-67
2022/04/16 04:26:57;;;;;;;2.17;2.08;;;;;;;;;;5105170;28;20220;-67
2022/04/16 04:29:25;;;;;;;2.28;2.17;;;;;;;;;;5105422;28;20361;-67
2022/04/16 04:31:51;;;;;;;2.28;2.17;;;;;;;;;;5105194;28;20234;-67
2022/04/16 04:34:17;;;;;;;2.17;2.08;;;;;;;;;;5105110;28;20199;-67
2022/04/16 04:36:44;;;;;;;2.33;2.22;;;;;;;;;;5104725;28;20230;-67
2022/04/16 04:39:10;;;;;;;2.47;2.38;;;;;;;;;;5105051;28;20241;-67
2022/04/16 04:41:36;;;;;;;2.38;2.28;;;;;;;;;;5105126;28;20202;-67
2022/04/16 04:44:03;;;;;;;2.50;2.40;;;;;;;;;;5105062;28;20257;-67
2022/04/16 04:46:30;;;;;;;2.20;2.20;;;;;;;;;;5104693;28;20212;-67
2022/04/16 04:48:57;;;;;;;2.20;2.15;;;;;;;;;;5104978;28;20196;-67
2022/04/16 04:51:23;;;;;;;2.17;2.17;;;;;;;;;;5104764;28;20196;-67
2022/04/16 04:53:49;;;;;;;2.67;2.58;;;;;;;;;;5105046;28;20209;-67
2022/04/16 04:56:16;;;;;;;2.40;2.20;;;;;;;;;;5104616;28;20228;-67
2022/04/16 04:58:42;;;;;;;2.25;2.25;;;;;;;;;;5104906;28;20204;-67
2022/04/16 05:01:08;;;;;;;2.97;2.78;;;;;;;;;;5104527;28;20203;-67
2022/04/16 05:03:37;;;;;;;5.18;4.70;;;;;;;;;;5104446;28;20266;-67
2022/04/16 05:06:03;;;;;;;3.53;3.33;;;;;;;;;;5104052;28;20245;-67
2022/04/16 05:08:29;;;;;;;3.28;3.10;;;;;;;;;;5104543;28;20246;-67
2022/04/16 05:10:55;;;;;;;2.53;2.42;;;;;;;;;;5104544;28;20234;-67
2022/04/16 05:13:22;;;;;;;2.63;2.55;;;;;;;;;;5104490;28;20261;-67
2022/04/16 05:15:48;;;;;;;3.08;2.92;;;;;;;;;;5104483;28;20196;-67
2022/04/16 05:18:14;;;;;;;3.60;3.40;;;;;;;;;;5104013;28;20491;-67
2022/04/16 05:20:42;;;;;;;3.10;2.83;;;;;;;;;;5104691;28;20199;-67
2022/04/16 05:23:08;;;;;;;3.28;3.08;;;;;;;;;;5104351;28;20507;-67
2022/04/16 05:25:34;;;;;;;2.78;2.67;;;;;;;;;;5104334;28;20538;-67
2022/04/16 05:28:00;;;;;;;2.55;2.35;;;;;;;;;;5104025;28;20219;-67
2022/04/16 05:30:33;;;;;;;2.63;2.53;;;;;;;;;;5104017;28;20243;-67
2022/04/16 05:33:05;;;;;;;3.10;2.90;;;;;;;;;;5092975;28;20192;-67
2022/04/16 05:35:32;;;;;;;2.70;2.60;;;;;;;;;;5086823;28;20200;-67
2022/04/16 05:38:00;;;;;;;2.90;2.67;;;;;;;;;;5083495;28;20239;-67
2022/04/16 05:40:26;;;;;;;3.00;2.80;;;;;;;;;;5083534;28;20203;-67
2022/04/16 05:42:52;;;;;;;2.38;2.28;;;;;;;;;;5083576;28;20235;-67
2022/04/16 05:45:18;;;;;;;2.97;2.88;;;;;;;;;;5083518;28;20242;-67
2022/04/16 05:47:45;;;;;;;2.70;2.60;;;;;;;;;;5082937;28;20212;-67
2022/04/16 05:50:11;;;;;;;2.60;2.47;;;;;;;;;;5083561;28;20200;-67
2022/04/16 05:52:38;;;;;;;2.45;2.35;;;;;;;;;;5083563;28;20203;-67
2022/04/16 05:55:07;;;;;;;2.72;2.63;;;;;;;;;;5083049;28;20208;-67
2022/04/16 05:57:33;;;;;;;2.78;2.67;;;;;;;;;;5082848;28;20192;-67
2022/04/16 05:59:59;;;;;;;3.22;3.03;;;;;;;;;;5082358;28;20250;-67
2022/04/16 06:02:25;;;;;;;2.78;2.67;;;;;;;;;;5082204;28;20234;-67
2022/04/16 06:04:52;;;;;;;3.38;3.08;;;;;;;;;;5083069;28;20504;-68
2022/04/16 06:07:18;;;;;;;3.00;2.80;;;;;;;;;;5082804;28;20255;-67
2022/04/16 06:09:44;;;;;;;2.58;2.47;;;;;;;;;;5083058;28;20200;-67
2022/04/16 06:12:12;;;;;;;2.58;2.47;;;;;;;;;;5082878;28;20242;-67
2022/04/16 06:14:38;;;;;;;2.95;2.75;;;;;;;;;;5082809;28;20196;-67
2022/04/16 06:17:04;;;;;;;3.00;2.90;;;;;;;;;;5082725;28;20502;-67
2022/04/16 06:19:31;;;;;;;2.92;2.83;;;;;;;;;;5082726;28;20226;-67
2022/04/16 06:21:57;;;;;;;2.92;2.72;;;;;;;;;;5082816;28;20499;-67
2022/04/16 06:24:23;;;;;;;2.95;2.83;;;;;;;;;;5082898;28;20235;-67
2022/04/16 06:26:49;;;;;;;3.22;3.05;;;;;;;;;;5082387;28;20224;-67
2022/04/16 06:29:17;;;;;;;3.03;2.83;;;;;;;;;;5082506;28;20200;-67
2022/04/16 06:31:43;;;;;;;2.75;2.65;;;;;;;;;;5082530;28;20323;-67
2022/04/16 06:34:10;;;;;;;2.58;2.47;;;;;;;;;;5082199;28;20196;-67
2022/04/16 06:36:37;;;;;;;2.53;2.42;;;;;;;;;;5082408;28;20399;-67
2022/04/16 06:39:03;;;;;;;2.85;2.65;;;;;;;;;;5082499;28;20200;-67
2022/04/16 06:41:30;;;;;;;2.78;2.67;;;;;;;;;;5082270;28;20197;-67
2022/04/16 06:43:56;;;;;;;2.60;2.50;;;;;;;;;;5082345;28;20208;-67
2022/04/16 06:46:23;;;;;;;3.13;3.03;;;;;;;;;;5082350;28;20201;-67
2022/04/16 06:48:50;;;;;;;2.45;2.30;;;;;;;;;;5082537;28;20203;-67
2022/04/16 06:51:16;;;;;;;2.88;2.78;;;;;;;;;;5082544;28;20200;-60
2022/04/16 06:53:43;;;;;;;2.78;2.67;;;;;;;;;;5082334;28;20196;-60
2022/04/16 06:56:09;;;;;;;3.20;2.88;;;;;;;;;;5082110;28;20369;-59
2022/04/16 06:58:35;;;;;;;3.03;2.92;;;;;;;;;;5082093;28;20251;-60
2022/04/16 07:01:01;;;;;;;3.30;3.10;;;;;;;;;;5082225;28;20204;-59
2022/04/16 07:03:29;;;;;;;2.80;2.70;;;;;;;;;;5082365;28;20424;-60
2022/04/16 07:05:55;;;;;;;3.05;2.85;;;;;;;;;;5082155;28;20220;-60
2022/04/16 07:08:22;;;;;;;2.83;2.72;;;;;;;;;;5082074;28;20215;-61
2022/04/16 07:10:48;;;;;;;3.33;3.13;;;;;;;;;;5082211;28;20242;-60
2022/04/16 07:13:14;;;;;;;3.42;3.22;;;;;;;;;;5081879;28;20504;-61
2022/04/16 07:15:40;;;;;;;3.45;3.25;;;;;;;;;;5082379;28;20201;-60
2022/04/16 07:18:07;;;;;;;3.72;3.42;;;;;;;;;;5082006;28;20199;-60
2022/04/16 07:20:35;;;;;;;3.70;3.50;;;;;;;;;;5082276;28;20196;-61
2022/04/16 07:23:01;;;;;;;3.22;3.10;;;;;;;;;;5082187;28;20310;-61
2022/04/16 07:25:28;;;;;;;3.60;3.30;;;;;;;;;;5082020;28;20231;-59
2022/04/16 07:27:54;;;;;;;3.67;3.47;;;;;;;;;;5082075;28;20258;-59
2022/04/16 07:30:20;;;;;;;3.72;3.53;;;;;;;;;;5081743;28;20196;-60
2022/04/16 07:32:47;;;;;;;3.70;3.50;;;;;;;;;;5082163;28;20203;-60
2022/04/16 07:35:13;;;;;;;4.13;3.83;;;;;;;;;;5082094;28;20196;-60
2022/04/16 07:37:40;;;;;;;4.90;4.57;;;;;;;;;;5081659;28;20193;-60
2022/04/16 07:40:07;;;;;;;4.65;4.25;;;;;;;;;;5081845;28;20367;-61
2022/04/16 07:42:35;;;;;;;4.22;3.92;;;;;;;;;;5081730;28;20196;-61
2022/04/16 07:45:02;;;;;;;4.30;4.00;;;;;;;;;;5081858;28;20197;-59
2022/04/16 07:47:28;;;;;;;4.65;4.18;;;;;;;;;;5084870;28;20589;-60
2022/04/16 07:49:54;;;;;;;5.13;4.72;;;;;;;;;;5085747;28;20242;-59
2022/04/16 07:52:22;;;;;;;4.97;4.68;;;;;;;;;;5085771;28;20196;-60
2022/04/16 07:54:49;;;;;;;5.38;4.78;;;;;;;;;;5085508;28;20387;-61
2022/04/16 07:57:15;;;;;;;4.85;4.45;;;;;;;;;;5085441;28;20438;-61
2022/04/16 07:59:42;;;;;;;5.53;4.97;;;;;;;;;;5085551;28;20558;-60
2022/04/16 08:02:08;;;;;;;5.45;4.95;;;;;;;;;;5085595;28;20421;-58
2022/04/16 08:04:34;;;;;;;6.85;5.85;;;;;;;;;;5085353;28;20511;-60
2022/04/16 08:07:00;;;;;;;9.80;6.90;;;;;;;;;;5085078;28;20213;-60
2022/04/16 08:09:27;;;;;;;13.40;9.88;;;;;;;;;;5085235;28;20200;-61
2022/04/16 08:11:54;;;;;;;7.70;6.90;;;;;;;;;;5085343;28;20201;-60
2022/04/16 08:14:21;;;;;;;9.30;6.55;;;;;;;;;;5085304;28;20388;-59
2022/04/16 08:16:48;;;;;;;7.55;6.88;;;;;;;;;;5084959;28;20204;-60
2022/04/16 08:19:14;;;;;;;6.30;5.70;;;;;;;;;;5085512;28;20242;-61
2022/04/16 08:21:42;;;;;;;5.35;5.03;;;;;;;;;;5085022;28;20429;-60
2022/04/16 08:24:22;;;;;;;5.68;5.15;;;;;;;;;;5085465;28;20218;-60
2022/04/16 08:26:48;;;;;;;5.38;5.00;;;;;;;;;;5084674;28;20267;-60
2022/04/16 08:29:16;;;;;;;4.55;4.15;;;;;;;;;;5085074;28;20261;-60
2022/04/16 08:31:42;;;;;;;6.15;5.55;;;;;;;;;;5084958;28;20204;-60
2022/04/16 08:34:09;;;;;;;5.78;5.20;;;;;;;;;;5084840;28;20208;-60
2022/04/16 08:36:36;;;;;;;6.18;5.00;;;;;;;;;;5084295;28;20218;-60
2022/04/16 08:39:03;;;;;;;5.18;4.78;;;;;;;;;;5085039;28;20192;-60
2022/04/16 08:41:30;;;;;;;5.78;5.05;;;;;;;;;;5084741;28;20398;-60
2022/04/16 08:43:57;;;;;;;5.55;5.05;;;;;;;;;;5084745;28;20197;-60
2022/04/16 08:46:26;;;;;;;5.40;4.93;;;;;;;;;;5084595;28;20196;-59
2022/04/16 08:48:53;;;;;;;6.00;5.40;;;;;;;;;;5084550;28;20266;-60
2022/04/16 08:51:20;;;;;;;5.90;5.25;;;;;;;;;;5084795;28;20201;-60
2022/04/16 08:53:46;;;;;;;5.00;4.63;;;;;;;;;;5084656;28;20426;-60
2022/04/16 08:56:12;;;;;;;5.03;4.70;;;;;;;;;;5084071;28;20196;-60
2022/04/16 08:58:39;;;;;;;5.22;4.82;;;;;;;;;;5083566;28;20201;-61
2022/04/16 09:01:05;;;;;;;5.05;4.60;;;;;;;;;;5083764;28;20243;-61
2022/04/16 09:03:33;;;;;;;4.72;4.43;;;;;;;;;;5083622;28;20223;-61
2022/04/16 09:06:00;;;;;;;5.28;4.88;;;;;;;;;;5083552;28;20251;-60
2022/04/16 09:08:29;;;;;;;8.15;5.60;;;;;;;;;;5083830;28;20573;-59
2022/04/16 09:11:04;;;;;;;6.65;5.22;;;;;;;;;;5083498;28;20239;-60
2022/04/16 09:13:31;;;;;;;10.32;6.60;;;;;;;;;;5083527;28;20196;-60
2022/04/16 09:16:03;;;;;;;5.95;5.45;;;;;;;;;;5083112;28;20200;-60
2022/04/16 09:18:29;;;;;;;6.93;5.93;;;;;;;;;;5083517;28;20237;-60
2022/04/16 09:20:57;;;;;;;8.25;6.95;;;;;;;;;;5083469;28;20249;-60
2022/04/16 09:23:23;;;;;;;6.70;6.03;;;;;;;;;;5083357;28;20196;-60
2022/04/16 09:25:49;;;;;;;6.53;5.85;;;;;;;;;;5083763;28;20196;-62
2022/04/16 09:28:16;;;;;;;6.57;6.03;;;;;;;;;;5084232;28;20212;-60
2022/04/16 09:30:48;;;;;;;5.65;5.18;;;;;;;;;;5083157;28;20258;-60
2022/04/16 09:33:15;;;;;;;6.30;5.70;;;;;;;;;;5082967;28;20204;-60
2022/04/16 09:35:41;;;;;;;6.40;5.80;;;;;;;;;;5083047;28;20205;-60
2022/04/16 09:38:12;;;;;;;6.53;5.93;;;;;;;;;;5082800;28;20192;-59
2022/04/16 09:40:38;;;;;;;6.43;5.93;;;;;;;;;;5082948;28;20204;-61
2022/04/16 09:43:05;;;;;;;9.57;6.90;;;;;;;;;;5082940;28;20196;-61
2022/04/16 09:45:32;;;;;;;6.57;6.07;;;;;;;;;;5082907;28;20196;-60
2022/04/16 09:47:59;;;;;;;6.45;5.95;;;;;;;;;;5082545;28;20217;-61
2022/04/16 09:50:26;;;;;;;5.80;5.30;;;;;;;;;;5082868;28;20540;-60
2022/04/16 09:52:54;;;;;;;5.45;4.97;;;;;;;;;;5082771;28;20197;-60
2022/04/16 09:55:22;;;;;;;6.20;5.70;;;;;;;;;;5082682;28;20200;-59
2022/04/16 09:57:53;;;;;;;6.55;5.72;;;;;;;;;;5082284;28;20553;-59
2022/04/16 10:00:21;;;;;;;6.13;5.63;;;;;;;;;;5082457;28;20219;-60
2022/04/16 10:02:47;;;;;;;6.32;5.80;;;;;;;;;;5082551;28;20203;-60
2022/04/16 10:05:14;;;;;;;6.47;5.75;;;;;;;;;;5082749;28;20216;-60
2022/04/16 10:07:42;;;;;;;6.40;5.80;;;;;;;;;;5082083;28;20223;-59
2022/04/16 10:10:17;;;;;;;5.63;5.22;;;;;;;;;;5082187;28;20196;-61
2022/04/16 10:13:00;;;;;;;6.65;6.05;;;;;;;;;;5082603;28;20196;-60
2022/04/16 10:15:30;;;;;;;6.50;5.90;;;;;;;;;;5082524;28;20196;-61
2022/04/16 10:17:58;;;;;;;6.15;5.65;;;;;;;;;;5082063;28;20230;-60
2022/04/16 10:20:25;;;;;;;5.60;5.13;;;;;;;;;;5082039;28;20239;-60
2022/04/16 10:22:55;;;;;;;5.93;5.50;;;;;;;;;;5081998;28;20398;-60
2022/04/16 10:25:28;;;;;;;11.35;9.52;;;;;;;;;;5082310;28;20396;-60
2022/04/16 10:28:00;;;;;;;7.85;7.15;;;;;;;;;;5082066;28;20258;-60
2022/04/16 10:30:35;;;;;;;6.80;6.20;;;;;;;;;;5082099;28;20437;-60
2022/04/16 10:33:04;;;;;;;6.63;5.97;;;;;;;;;;5082429;28;20200;-60
2022/04/16 10:35:30;;;;;;;8.15;6.45;;;;;;;;;;5082734;28;20204;-61
2022/04/16 10:37:56;;;;;;;7.80;7.00;;;;;;;;;;5082323;28;20192;-61
2022/04/16 10:40:23;;;;;;;5.85;5.45;;;;;;;;;;5082526;28;20207;-61
2022/04/16 10:42:51;;;;;;;5.75;5.25;;;;;;;;;;5082597;28;20222;-61
2022/04/16 10:45:19;;;;;;;5.35;4.95;;;;;;;;;;5082795;28;20201;-61
2022/04/16 10:47:46;;;;;;;5.38;4.97;;;;;;;;;;5082052;28;20465;-61
2022/04/16 10:50:17;;;;;;;6.18;5.68;;;;;;;;;;5082742;28;20197;-61
2022/04/16 10:52:52;;;;;;;6.63;6.05;;;;;;;;;;5082630;28;20204;-62
2022/04/16 10:55:20;;;;;;;5.32;4.93;;;;;;;;;;5082398;28;20241;-61
2022/04/16 10:57:55;;;;;;;5.10;4.70;;;;;;;;;;5082097;28;20199;-61
2022/04/16 11:00:34;;;;;;;4.15;3.85;;;;;;;;;;5082447;28;20321;-61
2022/04/16 11:03:06;;;;;;;4.65;4.35;;;;;;;;;;5082234;28;20200;-61
2022/04/16 11:05:35;;;;;;;5.95;5.40;;;;;;;;;;5082348;28;20244;-59
2022/04/16 11:08:01;;;;;;;3.72;3.53;;;;;;;;;;5082102;28;20470;-61
2022/04/16 11:10:28;;;;;;;3.92;3.72;;;;;;;;;;5082087;28;20234;-61
2022/04/16 11:12:55;;;;;;;4.70;4.30;;;;;;;;;;5082008;28;20243;-61
2022/04/16 11:15:24;;;;;;;4.47;4.18;;;;;;;;;;5082317;28;20199;-61
2022/04/16 11:17:53;;;;;;;5.20;4.70;;;;;;;;;;5082001;28;20196;-61
2022/04/16 11:20:21;;;;;;;4.55;4.25;;;;;;;;;;5083727;28;20197;-61
2022/04/16 11:22:48;;;;;;;4.82;4.35;;;;;;;;;;5086183;28;20453;-60
2022/04/16 11:25:14;;;;;;;5.82;5.32;;;;;;;;;;5086091;28;20188;-61
2022/04/16 11:35:54;;;;;;;4.18;3.88;;;;;;;;;;5085970;28;20203;-61
2022/04/16 11:38:24;;;;;;;4.45;4.13;;;;;;;;;;5086123;28;20192;-60
2022/04/16 11:40:52;;;;;;;4.82;4.53;;;;;;;;;;5085941;28;20196;-61
2022/04/16 11:43:19;;;;;;;4.68;4.38;;;;;;;;;;5085833;28;20200;-61
2022/04/16 11:45:46;;;;;;;5.60;5.10;;;;;;;;;;5085792;28;20197;-61
2022/04/16 11:48:14;;;;;;;8.27;6.32;;;;;;;;;;5085326;28;20250;-61
2022/04/16 11:50:41;;;;;;;5.03;4.53;;;;;;;;;;5085931;28;20212;-61
2022/04/16 11:53:07;;;;;;;5.00;4.60;;;;;;;;;;5086032;28;20196;-61
2022/04/16 11:55:34;;;;;;;5.35;4.85;;;;;;;;;;5085609;28;20494;-61
2022/04/16 11:58:00;;;;;;;5.22;4.82;;;;;;;;;;5085177;28;20198;-61
2022/04/16 12:00:27;;;;;;;5.80;5.30;;;;;;;;;;5085315;28;20208;-60
2022/04/16 12:02:56;;;;;;;6.78;5.05;;;;;;;;;;5085276;28;20243;-60
2022/04/16 12:05:25;;;;;;;6.93;4.38;;;;;;;;;;5085353;28;20539;-61
2022/04/16 12:07:53;;;;;;;5.30;4.90;;;;;;;;;;5085012;28;20196;-61
2022/04/16 12:10:19;;;;;;;5.18;4.78;;;;;;;;;;5085312;28;20193;-60
2022/04/16 12:12:47;;;;;;;5.13;4.72;;;;;;;;;;5085180;28;20224;-61
2022/04/16 12:15:19;;;;;;;5.40;4.90;;;;;;;;;;5085144;28;20242;-61
2022/04/16 12:17:45;;;;;;;5.15;4.75;;;;;;;;;;5085113;28;20518;-60
2022/04/16 12:20:13;;;;;;;5.10;4.70;;;;;;;;;;5085163;28;20242;-61
2022/04/16 12:22:47;;;;;;;5.07;4.68;;;;;;;;;;5084940;28;20201;-60
2022/04/16 12:25:14;;;;;;;5.03;4.53;;;;;;;;;;5085163;28;20419;-61
2022/04/16 12:27:44;;;;;;;5.45;5.05;;;;;;;;;;5084661;28;20197;-61
2022/04/16 12:30:12;;;;;;;5.75;5.25;;;;;;;;;;5085123;28;20220;-58
2022/04/16 12:32:39;;;;;;;5.50;5.10;;;;;;;;;;5084004;28;20204;-59
2022/04/16 12:35:05;;;;;;;5.80;5.30;;;;;;;;;;5085008;28;20200;-61
2022/04/16 12:37:33;;;;;;;5.03;4.20;;;;;;;;;;5084566;28;20426;-60
2022/04/16 12:39:59;;;;;;;5.18;4.38;;;;;;;;;;5084676;28;20207;-61
2022/04/16 12:42:25;;;;;;;4.80;4.40;;;;;;;;;;5084581;28;20441;-61
2022/04/16 12:44:51;;;;;;;4.47;4.18;;;;;;;;;;5084935;28;20422;-62
2022/04/16 12:47:18;;;;;;;5.13;4.63;;;;;;;;;;5084500;28;20196;-62
2022/04/16 12:49:44;;;;;;;5.97;4.82;;;;;;;;;;5084443;28;20212;-60
2022/04/16 12:52:10;;;;;;;4.55;4.20;;;;;;;;;;5084678;28;20250;-60
2022/04/16 12:54:38;;;;;;;5.75;4.20;;;;;;;;;;5084483;28;20361;-62
2022/04/16 12:57:04;;;;;;;4.43;4.13;;;;;;;;;;5083974;28;20243;-61
2022/04/16 12:59:30;;;;;;;4.22;3.92;;;;;;;;;;5084623;28;20192;-59
2022/04/16 13:01:57;;;;;;;4.75;4.43;;;;;;;;;;5084319;28;20456;-60
2022/04/16 13:04:24;;;;;;;4.57;4.18;;;;;;;;;;5084415;28;20197;-61
2022/04/16 13:06:51;;;;;;;4.03;3.72;;;;;;;;;;5083817;28;20224;-60
2022/04/16 13:09:17;;;;;;;4.70;4.30;;;;;;;;;;5084158;28;20446;-60
2022/04/16 13:11:46;;;;;;;5.13;4.72;;;;;;;;;;5084088;28;20204;-62
2022/04/16 13:14:12;;;;;;;4.50;4.20;;;;;;;;;;5084279;28;20197;-61
2022/04/16 13:16:39;;;;;;;4.40;4.10;;;;;;;;;;5083934;28;20422;-60
2022/04/16 13:19:05;;;;;;;4.60;4.20;;;;;;;;;;5084084;28;20253;-61
2022/04/16 13:21:32;;;;;;;5.32;4.25;;;;;;;;;;5083981;28;20197;-60
2022/04/16 13:23:59;;;;;;;4.60;4.30;;;;;;;;;;5083923;28;20299;-61
2022/04/16 13:26:26;;;;;;;3.92;3.63;;;;;;;;;;5084021;28;20197;-61
2022/04/16 13:28:53;;;;;;;3.97;3.78;;;;;;;;;;5083997;28;20283;-62
2022/04/16 13:31:20;;;;;;;3.45;3.25;;;;;;;;;;5084004;28;20196;-62
2022/04/16 13:33:46;;;;;;;4.07;3.78;;;;;;;;;;5083769;28;20201;-61
2022/04/16 13:36:12;;;;;;;5.00;4.60;;;;;;;;;;5083404;28;20200;-61
2022/04/16 13:38:39;;;;;;;3.95;3.65;;;;;;;;;;5083553;28;20193;-61
2022/04/16 13:43:49;;;;;;;3.60;3.40;;;;;;;;;;5082505;28;20214;-61
2022/04/16 13:46:17;;;;;;;4.28;4.03;;;;;;;;;;5083389;28;20196;-61
2022/04/16 13:48:43;;;;;;;3.80;3.55;;;;;;;;;;5083322;28;20224;-61
2022/04/16 13:51:09;;;;;;;5.18;4.22;;;;;;;;;;5083563;28;20234;-61
2022/04/16 13:53:36;;;;;;;4.47;4.18;;;;;;;;;;5083393;28;20196;-61
2022/04/16 13:56:03;;;;;;;3.78;3.58;;;;;;;;;;5083346;28;20196;-62
2022/04/16 13:58:29;;;;;;;4.05;3.75;;;;;;;;;;5083346;28;20203;-61
2022/04/16 14:00:55;;;;;;;4.72;4.10;;;;;;;;;;5083057;28;20205;-61
2022/04/16 14:03:23;;;;;;;3.63;3.42;;;;;;;;;;5083112;28;20222;-62
2022/04/16 14:05:49;;;;;;;3.42;3.22;;;;;;;;;;5082883;28;20254;-62
2022/04/16 14:08:18;;;;;;;3.83;3.63;;;;;;;;;;5081919;28;20472;-70
2022/04/16 14:10:44;;;;;;;2.90;2.80;;;;;;;;;;5082876;28;20514;-68
2022/04/16 14:13:11;;;;;;;3.42;3.20;;;;;;;;;;5089611;28;20204;-68
2022/04/16 14:15:37;;;;;;;3.55;3.25;;;;;;;;;;5103331;28;20386;-68
2022/04/16 14:18:04;;;;;;;3.38;2.65;;;;;;;;;;5102887;28;20207;-68
2022/04/16 14:20:31;;;;;;;3.25;3.05;;;;;;;;;;5102116;28;20202;-69
2022/04/16 14:22:58;;;;;;;3.30;3.10;;;;;;;;;;5103341;28;20241;-69
2022/04/16 14:25:25;;;;;;;3.10;2.90;;;;;;;;;;5103233;28;20260;-68
2022/04/16 14:27:51;;;;;;;2.70;2.60;;;;;;;;;;5103084;28;20396;-68
2022/04/16 14:30:18;;;;;;;3.05;2.88;;;;;;;;;;5103053;28;20549;-69
2022/04/16 14:32:44;;;;;;;3.00;2.83;;;;;;;;;;5102759;28;20191;-69
2022/04/16 14:35:11;;;;;;;3.80;2.50;;;;;;;;;;5103084;28;20383;-69
2022/04/16 14:37:39;;;;;;;2.53;2.40;;;;;;;;;;5102571;28;20195;-69
2022/04/16 14:40:06;;;;;;;2.58;2.47;;;;;;;;;;5102801;28;20192;-67
2022/04/16 14:42:32;;;;;;;2.60;2.50;;;;;;;;;;5102833;28;20203;-67
2022/04/16 14:44:59;;;;;;;2.60;2.47;;;;;;;;;;5102878;28;20301;-68
2022/04/16 14:47:25;;;;;;;2.40;2.30;;;;;;;;;;5102453;28;20196;-69
2022/04/16 14:49:51;;;;;;;2.72;2.47;;;;;;;;;;5102695;28;20450;-68
2022/04/16 14:52:18;;;;;;;2.10;2.00;;;;;;;;;;5102691;28;20240;-67
2022/04/16 14:54:46;;;;;;;1.88;1.80;;;;;;;;;;5102344;28;20270;-68
2022/04/16 14:57:12;;;;;;;4.10;2.50;;;;;;;;;;5102874;28;20195;-68
2022/04/16 14:59:38;;;;;;;2.20;2.10;;;;;;;;;;5102458;28;20198;-68
2022/04/16 15:02:04;;;;;;;2.30;2.20;;;;;;;;;;5102591;28;20204;-68
2022/04/16 15:04:31;;;;;;;2.00;1.90;;;;;;;;;;5102643;28;20437;-68
2022/04/16 15:06:57;;;;;;;3.25;2.20;;;;;;;;;;5102404;28;20404;-68